createdAt,value
2023-04-02T00:02:34.156Z,99895.41
2023-04-02T00:06:45.316Z,99907.78
2023-04-02T00:10:50.427Z,99909.09
2023-04-02T00:14:54.765Z,99920.50
2023-04-02T00:19:01.364Z,99932.25
2023-04-02T00:23:03.492Z,99937.56
2023-04-02T00:27:10.292Z,99940.56
2023-04-02T00:31:12.253Z,99955.09
2023-04-02T00:35:23.008Z,99953.22
2023-04-02T00:39:28.448Z,99968.03
2023-04-02T00:43:34.628Z,99961.06
2023-04-02T00:47:40.163Z,99977.91
2023-04-02T00:51:54.516Z,99977.22
2023-04-02T00:55:58.880Z,99995.81
2023-04-02T01:00:12.021Z,100005.09
2023-04-02T01:04:56.958Z,100021.16
2023-04-02T01:09:44.007Z,100026.16
2023-04-02T01:14:13.551Z,100024.50
2023-04-02T01:18:46.269Z,100048.25
2023-04-02T01:22:55.749Z,100044.31
2023-04-02T01:27:14.011Z,100051.88
2023-04-02T01:31:16.431Z,100062.16
2023-04-02T01:35:18.122Z,100075.47
2023-04-02T01:39:19.388Z,100079.59
2023-04-02T01:43:26.173Z,100091.13
2023-04-02T01:47:29.572Z,100091.22
2023-04-02T01:51:33.835Z,100110.50
2023-04-02T01:55:48.756Z,100106.09
2023-04-02T01:59:50.336Z,100112.19
2023-04-02T02:03:52.910Z,100129.56
2023-04-02T02:07:57.157Z,100138.28
2023-04-02T02:11:59.863Z,100147.13
2023-04-02T02:16:03.194Z,100144.38
2023-04-02T02:20:11.252Z,100155.09
2023-04-02T02:24:21.120Z,100166.59
2023-04-02T02:28:31.208Z,100171.06
2023-04-02T02:32:34.139Z,100187.16
2023-04-02T02:36:49.034Z,100201.84
2023-04-02T02:40:59.924Z,100210.66
2023-04-02T02:45:05.287Z,100213.91
2023-04-02T02:49:07.679Z,100222.78
2023-04-02T02:53:24.957Z,100233.19
2023-04-02T02:57:31.845Z,100239.41
2023-04-02T03:01:33.602Z,100247.97
2023-04-02T03:05:36.066Z,100250.34
2023-04-02T03:09:54.298Z,100262.56
2023-04-02T03:14:08.092Z,100268.44
2023-04-02T03:18:16.242Z,100269.47
2023-04-02T03:22:32.054Z,100286.19
2023-04-02T03:26:40.624Z,100298.47
2023-04-02T03:30:51.036Z,100304.13
2023-04-02T03:34:57.725Z,100315.34
2023-04-02T03:39:19.445Z,100327.44
2023-04-02T03:43:25.415Z,100322.19
2023-04-02T03:47:40.076Z,100341.81
2023-04-02T03:51:57.972Z,100350.94
2023-04-02T03:56:01.008Z,100355.16
2023-04-02T04:00:45.415Z,100364.19
2023-04-02T04:04:48.776Z,100379.19
2023-04-02T04:08:59.203Z,100387.59
2023-04-02T04:13:12.827Z,100393.59
2023-04-02T04:17:30.373Z,100411.03
2023-04-02T04:21:37.287Z,100418.22
2023-04-02T04:25:40.102Z,100423.44
2023-04-02T04:29:57.704Z,100434.53
2023-04-02T04:34:05.605Z,100452.81
2023-04-02T04:38:09.937Z,100468.00
2023-04-02T04:42:22.981Z,100466.66
2023-04-02T04:46:30.919Z,100472.41
2023-04-02T04:50:38.184Z,100483.25
2023-04-02T04:54:39.825Z,100499.78
2023-04-02T04:58:46.207Z,100504.09
2023-04-02T05:02:54.208Z,100521.91
2023-04-02T05:07:09.208Z,100519.09
2023-04-02T05:11:19.488Z,100541.31
2023-04-02T05:15:30.171Z,100545.50
2023-04-02T05:19:42.180Z,100561.63
2023-04-02T05:23:52.651Z,100559.28
2023-04-02T05:28:17.708Z,100579.47
2023-04-02T05:32:25.841Z,100581.25
2023-04-02T05:36:30.022Z,100581.75
2023-04-02T05:40:46.270Z,100583.78
2023-04-02T05:45:19.155Z,100595.38
2023-04-02T05:49:28.787Z,100614.75
2023-04-02T05:53:30.101Z,100638.91
2023-04-02T05:57:44.534Z,100635.50
2023-04-02T06:01:58.862Z,100649.59
2023-04-02T06:06:06.795Z,100666.25
2023-04-02T06:10:11.866Z,100668.78
2023-04-02T06:14:14.871Z,100685.31
2023-04-02T06:18:25.611Z,100693.84
2023-04-02T06:22:38.138Z,100688.16
2023-04-02T06:26:43.388Z,100700.22
2023-04-02T06:30:45.811Z,100711.53
2023-04-02T06:34:47.235Z,100724.91
2023-04-02T06:38:50.780Z,100733.66
2023-04-02T06:42:59.428Z,100739.19
2023-04-02T06:47:11.301Z,100741.84
2023-04-02T06:51:17.589Z,100760.75
2023-04-02T06:55:47.132Z,100776.81
2023-04-02T06:59:51.086Z,100775.88
2023-04-02T07:03:52.957Z,100787.75
2023-04-02T07:07:54.420Z,100805.69
2023-04-02T07:11:55.824Z,100809.00
2023-04-02T07:15:57.316Z,100831.09
2023-04-02T07:19:59.095Z,100842.72
2023-04-02T07:24:00.608Z,100833.13
2023-04-02T07:28:01.947Z,100855.72
2023-04-02T07:32:03.323Z,100861.81
2023-04-02T07:36:05.004Z,100865.97
2023-04-02T07:40:15.507Z,100876.34
2023-04-02T07:44:16.979Z,100885.16
2023-04-02T07:48:18.545Z,100908.44
2023-04-02T07:52:21.601Z,100907.22
2023-04-02T07:56:24.923Z,100914.63
2023-04-02T08:00:28.541Z,100913.28
2023-04-02T08:04:30.286Z,100923.59
2023-04-02T08:08:31.743Z,100934.66
2023-04-02T08:12:33.213Z,100950.84
2023-04-02T08:16:49.243Z,100959.00
2023-04-02T08:20:50.941Z,100970.09
2023-04-02T08:24:52.330Z,100975.53
2023-04-02T08:28:53.700Z,100980.78
2023-04-02T08:32:55.214Z,100991.97
2023-04-02T08:36:58.057Z,101009.78
2023-04-02T08:41:02.704Z,101015.75
2023-04-02T08:45:27.882Z,101021.56
2023-04-02T08:49:35.841Z,101036.09
2023-04-02T08:53:39.112Z,101040.97
2023-04-02T08:57:57.488Z,101049.19
2023-04-02T09:02:21.220Z,101060.03
2023-04-02T09:06:22.943Z,101070.50
2023-04-02T09:10:37.132Z,101071.72
2023-04-02T09:14:59.946Z,101076.94
2023-04-02T09:19:02.115Z,101091.22
2023-04-02T09:23:03.591Z,101082.88
2023-04-02T09:27:17.883Z,101097.38
2023-04-02T09:31:30.613Z,101108.16
2023-04-02T09:35:37.084Z,101118.50
2023-04-02T09:39:38.529Z,101131.56
2023-04-02T09:43:40.012Z,101133.16
2023-04-02T09:47:42.454Z,101143.97
2023-04-02T09:51:43.938Z,101161.00
2023-04-02T09:55:45.308Z,101154.47
2023-04-02T09:59:46.706Z,101173.53
2023-04-02T10:03:48.121Z,101179.22
2023-04-02T10:07:52.972Z,101189.34
2023-04-02T10:11:55.783Z,101196.44
2023-04-02T10:16:07.049Z,101212.28
2023-04-02T10:20:21.017Z,101208.50
2023-04-02T10:24:23.300Z,101214.03
2023-04-02T10:28:42.897Z,101220.16
2023-04-02T10:32:57.570Z,101235.69
2023-04-02T10:37:11.104Z,101240.91
2023-04-02T10:41:34.919Z,101248.00
2023-04-02T10:45:49.985Z,101245.03
2023-04-02T10:50:06.768Z,101256.19
2023-04-02T10:54:27.995Z,101257.78
2023-04-02T10:58:35.274Z,101266.63
2023-04-02T11:03:08.124Z,101277.69
2023-04-02T11:07:17.203Z,101288.41
2023-04-02T11:11:27.690Z,101296.59
2023-04-02T11:15:32.981Z,101299.97
2023-04-02T11:19:36.010Z,101308.09
2023-04-02T11:23:57.037Z,101313.13
2023-04-02T11:28:13.805Z,101320.91
2023-04-02T11:32:25.285Z,101325.56
2023-04-02T11:36:54.864Z,101333.25
2023-04-02T11:40:56.825Z,101333.69
2023-04-02T11:45:24.530Z,101344.13
2023-04-02T11:49:32.190Z,101347.94
2023-04-02T11:53:34.951Z,101344.75
2023-04-02T11:57:45.306Z,101350.63
2023-04-02T12:02:24.592Z,101342.94
2023-04-02T12:07:26.765Z,101356.09
2023-04-02T12:11:40.272Z,101358.25
2023-04-02T12:15:46.357Z,101361.50
2023-04-02T12:19:53.588Z,101374.38
2023-04-02T12:23:58.714Z,101376.31
2023-04-02T12:28:10.650Z,101380.91
2023-04-02T12:32:27.690Z,101387.75
2023-04-02T12:36:31.766Z,101394.50
2023-04-02T12:40:33.069Z,101405.03
2023-04-02T12:44:34.459Z,101396.59
2023-04-02T12:48:36.357Z,101411.81
2023-04-02T12:52:45.184Z,101419.69
2023-04-02T12:56:50.654Z,101409.13
2023-04-02T13:00:52.260Z,101423.56
2023-04-02T13:04:55.931Z,101432.81
2023-04-02T13:08:58.734Z,101430.00
2023-04-02T13:13:03.177Z,101440.78
2023-04-02T13:17:44.543Z,101431.34
2023-04-02T13:21:46.207Z,101434.38
2023-04-02T13:25:47.900Z,101443.00
2023-04-02T13:29:52.255Z,101436.31
2023-04-02T13:33:53.593Z,101443.94
2023-04-02T13:37:54.959Z,101443.34
2023-04-02T13:41:58.696Z,101448.22
2023-04-02T13:46:02.225Z,101450.94
2023-04-02T13:50:03.718Z,101452.38
2023-04-02T13:54:15.926Z,101469.31
2023-04-02T13:58:18.913Z,101467.97
2023-04-02T14:02:24.559Z,101469.22
2023-04-02T14:06:44.602Z,101474.81
2023-04-02T14:11:04.511Z,101478.47
2023-04-02T14:15:24.059Z,101489.44
2023-04-02T14:19:43.584Z,101488.19
2023-04-02T14:24:08.812Z,101513.63
2023-04-02T14:28:16.688Z,101519.88
2023-04-02T14:32:33.067Z,101527.91
2023-04-02T14:36:34.385Z,101527.88
2023-04-02T14:40:52.531Z,101534.00
2023-04-02T14:45:29.120Z,101540.50
2023-04-02T14:49:39.564Z,101547.91
2023-04-02T14:54:07.306Z,101554.97
2023-04-02T14:58:18.760Z,101555.44
2023-04-02T15:02:30.467Z,101558.66
2023-04-02T15:06:37.853Z,101560.59
2023-04-02T15:10:47.728Z,101571.63
2023-04-02T15:14:55.772Z,101577.31
2023-04-02T15:19:01.743Z,101577.75
2023-04-02T15:23:19.852Z,101581.78
2023-04-02T15:27:56.018Z,101576.75
2023-04-02T15:32:17.338Z,101582.63
2023-04-02T15:36:39.545Z,101599.56
2023-04-02T15:41:00.360Z,101603.81
2023-04-02T15:45:08.210Z,101604.94
2023-04-02T15:49:20.094Z,101609.28
2023-04-02T15:53:39.019Z,101618.50
2023-04-02T15:58:13.980Z,101623.13
2023-04-02T16:02:46.256Z,101632.34
2023-04-02T16:07:19.043Z,101638.22
2023-04-02T16:11:21.026Z,101648.78
2023-04-02T16:15:30.447Z,101653.63
2023-04-02T16:19:52.778Z,101661.84
2023-04-02T16:23:54.155Z,101670.16
2023-04-02T16:28:13.704Z,101677.09
2023-04-02T16:32:18.026Z,101689.63
2023-04-02T16:36:25.444Z,101682.88
2023-04-02T16:40:31.938Z,101683.47
2023-04-02T16:44:57.312Z,101696.59
2023-04-02T16:49:12.243Z,101693.66
2023-04-02T16:53:33.953Z,101706.84
2023-04-02T16:57:57.462Z,101727.44
2023-04-02T17:02:09.231Z,101725.13
2023-04-02T17:06:23.960Z,101718.66
2023-04-02T17:10:30.735Z,101724.31
2023-04-02T17:14:42.313Z,101737.59
2023-04-02T17:18:47.355Z,101740.66
2023-04-02T17:22:49.206Z,101755.72
2023-04-02T17:27:12.341Z,101756.13
2023-04-02T17:31:19.315Z,101763.19
2023-04-02T17:35:59.383Z,101764.28
2023-04-02T17:40:22.020Z,101770.47
2023-04-02T17:44:46.371Z,101780.03
2023-04-02T17:48:52.256Z,101788.19
2023-04-02T17:53:11.064Z,101793.69
2023-04-02T17:57:30.880Z,101802.41
2023-04-02T18:01:38.301Z,101811.28
2023-04-02T18:05:45.641Z,101809.00
2023-04-02T18:09:56.129Z,101824.19
2023-04-02T18:14:13.096Z,101830.53
2023-04-02T18:18:34.398Z,101844.81
2023-04-02T18:22:46.977Z,101836.94
2023-04-02T18:27:15.433Z,101852.91
2023-04-02T18:31:27.939Z,101853.09
2023-04-02T18:36:05.121Z,101852.25
2023-04-02T18:40:40.248Z,101855.94
2023-04-02T18:44:58.387Z,101867.56
2023-04-02T18:49:26.599Z,101872.66
2023-04-02T18:53:31.015Z,101873.69
2023-04-02T18:57:35.989Z,101881.00
2023-04-02T19:05:57.335Z,101896.13
2023-04-02T19:10:07.335Z,101907.81
2023-04-02T19:14:12.598Z,101900.56
2023-04-02T19:18:49.244Z,101922.25
2023-04-02T19:23:00.130Z,101921.28
2023-04-02T19:27:27.138Z,101933.13
2023-04-02T19:31:43.793Z,101933.78
2023-04-02T19:35:57.291Z,101938.09
2023-04-02T19:40:11.528Z,101950.50
2023-04-02T19:44:16.197Z,101946.25
2023-04-02T19:48:24.633Z,101957.53
2023-04-02T19:52:27.270Z,101948.19
2023-04-02T19:56:28.584Z,101949.97
2023-04-02T20:00:30.038Z,101961.78
2023-04-02T20:04:31.551Z,101960.06
2023-04-02T20:08:33.188Z,101964.53
2023-04-02T20:12:34.534Z,101968.81
2023-04-02T20:16:36.914Z,101970.41
2023-04-02T20:20:39.212Z,101984.63
2023-04-02T20:24:42.537Z,101991.72
2023-04-02T20:28:43.864Z,101995.47
2023-04-02T20:32:45.728Z,101996.88
2023-04-02T20:36:51.496Z,102007.53
2023-04-02T20:40:54.774Z,102010.81
2023-04-02T20:44:56.100Z,102013.47
2023-04-02T20:48:59.107Z,102029.94
2023-04-02T20:53:00.892Z,102021.72
2023-04-02T20:57:02.978Z,102024.75
2023-04-02T21:01:22.840Z,102040.16
2023-04-02T21:05:24.297Z,102040.72
2023-04-02T21:09:25.690Z,102034.19
2023-04-02T21:13:30.348Z,102041.97
2023-04-02T21:17:31.728Z,102037.69
2023-04-02T21:21:33.438Z,102046.19
2023-04-02T21:25:35.068Z,102045.72
2023-04-02T21:29:36.634Z,102042.63
2023-04-02T21:33:40.904Z,102047.66
2023-04-02T21:37:44.147Z,102047.34
2023-04-02T21:41:49.943Z,102050.44
2023-04-02T21:45:52.044Z,102047.69
2023-04-02T21:49:53.344Z,102045.28
2023-04-02T21:53:55.578Z,102055.22
2023-04-02T21:57:56.877Z,102051.19
2023-04-02T22:01:58.459Z,102058.75
2023-04-02T22:06:02.223Z,102063.97
2023-04-02T22:10:03.887Z,102061.47
2023-04-02T22:14:05.844Z,102060.34
2023-04-02T22:18:07.199Z,102068.03
2023-04-02T22:22:08.625Z,102076.41
2023-04-02T22:26:11.902Z,102067.16
2023-04-02T22:30:13.445Z,102074.19
2023-04-02T22:34:15.021Z,102077.94
2023-04-02T22:38:16.349Z,102074.78
2023-04-02T22:42:17.685Z,102085.94
2023-04-02T22:46:20.297Z,102084.56
2023-04-02T22:50:21.864Z,102092.91
2023-04-02T22:54:23.249Z,102095.25
2023-04-02T22:58:26.469Z,102099.03
2023-04-02T23:02:27.831Z,102111.75
2023-04-02T23:06:29.353Z,102110.16
2023-04-02T23:10:31.015Z,102104.06
2023-04-02T23:14:32.420Z,102112.94
2023-04-02T23:18:37.974Z,102114.78
2023-04-02T23:22:39.334Z,102107.13
2023-04-02T23:26:40.769Z,102115.78
2023-04-02T23:30:43.348Z,102118.41
2023-04-02T23:34:44.739Z,102119.44
2023-04-02T23:38:46.053Z,102124.38
2023-04-02T23:42:47.397Z,102126.97
2023-04-02T23:46:48.757Z,102122.81
2023-04-02T23:50:50.285Z,102127.41
2023-04-02T23:54:51.663Z,102114.09
2023-04-02T23:58:53.052Z,102120.75
